sensor_id;sensor_type;location;lat;lon;timestamp;temperature;humidity
24410;DHT22;12543;53.364;-1.504;2023-02-28T00:01:32;6.80;99.90
24410;DHT22;12543;53.364;-1.504;2023-02-28T00:03:59;6.80;99.90
24410;DHT22;12543;53.364;-1.504;2023-02-28T00:06:27;6.80;99.90
24410;DHT22;12543;53.364;-1.504;2023-02-28T00:08:54;6.80;99.90
24410;DHT22;12543;53.364;-1.504;2023-02-28T00:11:21;6.80;99.90
24410;DHT22;12543;53.364;-1.504;2023-02-28T00:13:48;6.80;99.90
24410;DHT22;12543;53.364;-1.504;2023-02-28T00:16:19;6.80;99.90
24410;DHT22;12543;53.364;-1.504;2023-02-28T00:18:47;6.80;99.90
24410;DHT22;12543;53.364;-1.504;2023-02-28T00:21:15;6.70;99.90
24410;DHT22;12543;53.364;-1.504;2023-02-28T00:23:42;6.70;99.90
24410;DHT22;12543;53.364;-1.504;2023-02-28T00:26:10;6.70;99.90
24410;DHT22;12543;53.364;-1.504;2023-02-28T00:28:40;6.80;99.90
24410;DHT22;12543;53.364;-1.504;2023-02-28T00:31:07;6.70;99.90
24410;DHT22;12543;53.364;-1.504;2023-02-28T00:33:34;6.70;99.90
24410;DHT22;12543;53.364;-1.504;2023-02-28T00:36:04;6.70;99.90
24410;DHT22;12543;53.364;-1.504;2023-02-28T00:38:31;6.70;99.90
24410;DHT22;12543;53.364;-1.504;2023-02-28T00:41:00;6.70;99.90
24410;DHT22;12543;53.364;-1.504;2023-02-28T00:43:33;6.70;99.90
24410;DHT22;12543;53.364;-1.504;2023-02-28T00:46:01;6.70;99.90
24410;DHT22;12543;53.364;-1.504;2023-02-28T00:48:29;6.70;99.90
24410;DHT22;12543;53.364;-1.504;2023-02-28T00:50:56;6.70;99.90
24410;DHT22;12543;53.364;-1.504;2023-02-28T00:53:24;6.70;99.90
24410;DHT22;12543;53.364;-1.504;2023-02-28T00:55:51;6.70;99.90
24410;DHT22;12543;53.364;-1.504;2023-02-28T00:58:18;6.70;99.90
24410;DHT22;12543;53.364;-1.504;2023-02-28T01:00:45;6.70;99.90
24410;DHT22;12543;53.364;-1.504;2023-02-28T01:03:17;6.70;99.90
24410;DHT22;12543;53.364;-1.504;2023-02-28T01:05:45;6.70;99.90
24410;DHT22;12543;53.364;-1.504;2023-02-28T01:08:13;6.70;99.90
24410;DHT22;12543;53.364;-1.504;2023-02-28T01:10:41;6.70;99.90
24410;DHT22;12543;53.364;-1.504;2023-02-28T01:13:09;6.60;99.90
24410;DHT22;12543;53.364;-1.504;2023-02-28T01:15:37;6.60;99.90
24410;DHT22;12543;53.364;-1.504;2023-02-28T01:18:04;6.60;99.90
24410;DHT22;12543;53.364;-1.504;2023-02-28T01:20:31;6.60;99.90
24410;DHT22;12543;53.364;-1.504;2023-02-28T01:22:58;6.60;99.90
24410;DHT22;12543;53.364;-1.504;2023-02-28T01:25:26;6.60;99.90
24410;DHT22;12543;53.364;-1.504;2023-02-28T01:27:54;6.60;99.90
24410;DHT22;12543;53.364;-1.504;2023-02-28T01:30:21;6.60;99.90
24410;DHT22;12543;53.364;-1.504;2023-02-28T01:32:48;6.60;99.90
24410;DHT22;12543;53.364;-1.504;2023-02-28T01:35:17;6.60;99.90
24410;DHT22;12543;53.364;-1.504;2023-02-28T01:37:44;6.60;99.90
24410;DHT22;12543;53.364;-1.504;2023-02-28T01:40:12;6.60;99.90
24410;DHT22;12543;53.364;-1.504;2023-02-28T01:42:39;6.60;99.90
24410;DHT22;12543;53.364;-1.504;2023-02-28T01:45:42;6.60;99.90
24410;DHT22;12543;53.364;-1.504;2023-02-28T01:48:09;6.60;99.90
24410;DHT22;12543;53.364;-1.504;2023-02-28T01:50:41;6.60;99.90
24410;DHT22;12543;53.364;-1.504;2023-02-28T01:53:14;6.50;99.90
24410;DHT22;12543;53.364;-1.504;2023-02-28T01:55:46;6.50;99.90
24410;DHT22;12543;53.364;-1.504;2023-02-28T01:58:14;6.50;99.90
24410;DHT22;12543;53.364;-1.504;2023-02-28T02:00:42;6.50;99.90
24410;DHT22;12543;53.364;-1.504;2023-02-28T02:03:13;6.50;99.90
24410;DHT22;12543;53.364;-1.504;2023-02-28T02:05:43;6.50;99.90
24410;DHT22;12543;53.364;-1.504;2023-02-28T02:08:21;6.50;99.90
24410;DHT22;12543;53.364;-1.504;2023-02-28T02:10:56;6.50;99.90
24410;DHT22;12543;53.364;-1.504;2023-02-28T02:13:53;6.50;99.90
24410;DHT22;12543;53.364;-1.504;2023-02-28T02:16:41;6.50;99.90
24410;DHT22;12543;53.364;-1.504;2023-02-28T02:22:20;6.50;99.90
24410;DHT22;12543;53.364;-1.504;2023-02-28T02:36:15;6.50;99.90
24410;DHT22;12543;53.364;-1.504;2023-02-28T02:41:26;6.50;99.90
24410;DHT22;12543;53.364;-1.504;2023-02-28T02:44:02;6.50;99.90
24410;DHT22;12543;53.364;-1.504;2023-02-28T02:46:34;6.50;99.90
24410;DHT22;12543;53.364;-1.504;2023-02-28T02:49:08;6.40;99.90
24410;DHT22;12543;53.364;-1.504;2023-02-28T02:51:36;6.40;99.90
24410;DHT22;12543;53.364;-1.504;2023-02-28T02:54:13;6.40;99.90
24410;DHT22;12543;53.364;-1.504;2023-02-28T02:56:47;6.40;99.90
24410;DHT22;12543;53.364;-1.504;2023-02-28T02:59:18;6.40;99.90
24410;DHT22;12543;53.364;-1.504;2023-02-28T03:01:51;6.40;99.90
24410;DHT22;12543;53.364;-1.504;2023-02-28T03:04:22;6.40;99.90
24410;DHT22;12543;53.364;-1.504;2023-02-28T03:06:52;6.40;99.90
24410;DHT22;12543;53.364;-1.504;2023-02-28T03:09:25;6.40;99.90
24410;DHT22;12543;53.364;-1.504;2023-02-28T03:11:55;6.40;99.90
24410;DHT22;12543;53.364;-1.504;2023-02-28T03:26:04;6.40;99.90
24410;DHT22;12543;53.364;-1.504;2023-02-28T03:31:05;6.40;99.90
24410;DHT22;12543;53.364;-1.504;2023-02-28T03:33:43;6.30;99.90
24410;DHT22;12543;53.364;-1.504;2023-02-28T03:36:15;6.30;99.90
24410;DHT22;12543;53.364;-1.504;2023-02-28T03:39:00;6.30;99.90
24410;DHT22;12543;53.364;-1.504;2023-02-28T03:44:21;6.30;99.90
24410;DHT22;12543;53.364;-1.504;2023-02-28T03:46:52;6.30;99.90
24410;DHT22;12543;53.364;-1.504;2023-02-28T03:49:57;6.30;99.90
24410;DHT22;12543;53.364;-1.504;2023-02-28T03:52:17;6.30;99.90
24410;DHT22;12543;53.364;-1.504;2023-02-28T03:54:50;6.30;99.90
24410;DHT22;12543;53.364;-1.504;2023-02-28T04:00:14;6.30;99.90
24410;DHT22;12543;53.364;-1.504;2023-02-28T04:02:43;6.30;99.90
24410;DHT22;12543;53.364;-1.504;2023-02-28T04:05:10;6.30;99.90
24410;DHT22;12543;53.364;-1.504;2023-02-28T04:07:37;6.30;99.90
24410;DHT22;12543;53.364;-1.504;2023-02-28T04:10:05;6.30;99.90
24410;DHT22;12543;53.364;-1.504;2023-02-28T04:12:33;6.30;99.90
24410;DHT22;12543;53.364;-1.504;2023-02-28T04:15:00;6.30;99.90
24410;DHT22;12543;53.364;-1.504;2023-02-28T04:17:27;6.30;99.90
24410;DHT22;12543;53.364;-1.504;2023-02-28T04:19:54;6.30;99.90
24410;DHT22;12543;53.364;-1.504;2023-02-28T04:22:23;6.30;99.90
24410;DHT22;12543;53.364;-1.504;2023-02-28T04:24:53;6.30;99.90
24410;DHT22;12543;53.364;-1.504;2023-02-28T04:27:21;6.30;99.90
24410;DHT22;12543;53.364;-1.504;2023-02-28T04:29:48;6.30;99.90
24410;DHT22;12543;53.364;-1.504;2023-02-28T04:32:15;6.30;99.90
24410;DHT22;12543;53.364;-1.504;2023-02-28T04:34:42;6.30;99.90
24410;DHT22;12543;53.364;-1.504;2023-02-28T04:37:10;6.40;99.90
24410;DHT22;12543;53.364;-1.504;2023-02-28T04:39:40;6.40;99.90
24410;DHT22;12543;53.364;-1.504;2023-02-28T04:42:08;6.40;99.90
24410;DHT22;12543;53.364;-1.504;2023-02-28T04:44:35;6.40;99.90
24410;DHT22;12543;53.364;-1.504;2023-02-28T04:47:02;6.40;99.90
24410;DHT22;12543;53.364;-1.504;2023-02-28T04:49:29;6.30;99.90
24410;DHT22;12543;53.364;-1.504;2023-02-28T04:51:56;6.40;99.90
24410;DHT22;12543;53.364;-1.504;2023-02-28T04:54:23;6.40;99.90
24410;DHT22;12543;53.364;-1.504;2023-02-28T04:56:51;6.40;99.90
24410;DHT22;12543;53.364;-1.504;2023-02-28T04:59:18;6.40;99.90
24410;DHT22;12543;53.364;-1.504;2023-02-28T05:01:47;6.40;99.90
24410;DHT22;12543;53.364;-1.504;2023-02-28T05:04:15;6.40;99.90
24410;DHT22;12543;53.364;-1.504;2023-02-28T05:06:42;6.40;99.90
24410;DHT22;12543;53.364;-1.504;2023-02-28T05:09:10;6.40;99.90
24410;DHT22;12543;53.364;-1.504;2023-02-28T05:11:40;6.40;99.90
24410;DHT22;12543;53.364;-1.504;2023-02-28T05:14:12;6.40;99.90
24410;DHT22;12543;53.364;-1.504;2023-02-28T05:16:40;6.40;99.90
24410;DHT22;12543;53.364;-1.504;2023-02-28T05:19:08;6.30;99.90
24410;DHT22;12543;53.364;-1.504;2023-02-28T05:24:09;6.30;99.90
24410;DHT22;12543;53.364;-1.504;2023-02-28T05:26:39;6.40;99.90
24410;DHT22;12543;53.364;-1.504;2023-02-28T05:29:07;6.40;99.90
24410;DHT22;12543;53.364;-1.504;2023-02-28T05:31:35;6.40;99.90
24410;DHT22;12543;53.364;-1.504;2023-02-28T05:34:02;6.40;99.90
24410;DHT22;12543;53.364;-1.504;2023-02-28T05:36:32;6.40;99.90
24410;DHT22;12543;53.364;-1.504;2023-02-28T05:38:59;6.40;99.90
24410;DHT22;12543;53.364;-1.504;2023-02-28T05:41:26;6.40;99.90
24410;DHT22;12543;53.364;-1.504;2023-02-28T05:43:54;6.30;99.90
24410;DHT22;12543;53.364;-1.504;2023-02-28T05:46:21;6.30;99.90
24410;DHT22;12543;53.364;-1.504;2023-02-28T05:48:48;6.30;99.90
24410;DHT22;12543;53.364;-1.504;2023-02-28T05:51:16;6.40;99.90
24410;DHT22;12543;53.364;-1.504;2023-02-28T05:53:43;6.30;99.90
24410;DHT22;12543;53.364;-1.504;2023-02-28T05:56:11;6.30;99.90
24410;DHT22;12543;53.364;-1.504;2023-02-28T05:58:38;6.30;99.90
24410;DHT22;12543;53.364;-1.504;2023-02-28T06:01:34;6.30;99.90
24410;DHT22;12543;53.364;-1.504;2023-02-28T06:04:04;6.30;99.90
24410;DHT22;12543;53.364;-1.504;2023-02-28T06:06:31;6.30;99.90
24410;DHT22;12543;53.364;-1.504;2023-02-28T06:09:04;6.30;99.90
24410;DHT22;12543;53.364;-1.504;2023-02-28T06:11:32;6.30;99.90
24410;DHT22;12543;53.364;-1.504;2023-02-28T06:14:00;6.30;99.90
24410;DHT22;12543;53.364;-1.504;2023-02-28T06:16:29;6.30;99.90
24410;DHT22;12543;53.364;-1.504;2023-02-28T06:19:02;6.30;99.90
24410;DHT22;12543;53.364;-1.504;2023-02-28T06:21:29;6.30;99.90
24410;DHT22;12543;53.364;-1.504;2023-02-28T06:23:57;6.30;99.90
24410;DHT22;12543;53.364;-1.504;2023-02-28T06:26:26;6.30;99.90
24410;DHT22;12543;53.364;-1.504;2023-02-28T06:28:53;6.30;99.90
24410;DHT22;12543;53.364;-1.504;2023-02-28T06:31:21;6.30;99.90
24410;DHT22;12543;53.364;-1.504;2023-02-28T06:33:49;6.30;99.90
24410;DHT22;12543;53.364;-1.504;2023-02-28T06:36:17;6.30;99.90
24410;DHT22;12543;53.364;-1.504;2023-02-28T06:38:44;6.30;99.90
24410;DHT22;12543;53.364;-1.504;2023-02-28T06:41:13;6.30;99.90
24410;DHT22;12543;53.364;-1.504;2023-02-28T06:43:42;6.30;99.90
24410;DHT22;12543;53.364;-1.504;2023-02-28T06:46:11;6.30;99.90
24410;DHT22;12543;53.364;-1.504;2023-02-28T06:48:42;6.30;99.90
24410;DHT22;12543;53.364;-1.504;2023-02-28T06:51:12;6.30;99.90
24410;DHT22;12543;53.364;-1.504;2023-02-28T06:53:41;6.30;99.90
24410;DHT22;12543;53.364;-1.504;2023-02-28T06:56:10;6.30;99.90
24410;DHT22;12543;53.364;-1.504;2023-02-28T06:58:38;6.30;99.90
24410;DHT22;12543;53.364;-1.504;2023-02-28T07:01:06;6.30;99.90
24410;DHT22;12543;53.364;-1.504;2023-02-28T07:03:35;6.30;99.90
24410;DHT22;12543;53.364;-1.504;2023-02-28T07:06:05;6.30;99.90
24410;DHT22;12543;53.364;-1.504;2023-02-28T07:08:33;6.30;99.90
24410;DHT22;12543;53.364;-1.504;2023-02-28T07:11:00;6.30;99.90
24410;DHT22;12543;53.364;-1.504;2023-02-28T07:13:32;6.30;99.90
24410;DHT22;12543;53.364;-1.504;2023-02-28T07:16:05;6.30;99.90
24410;DHT22;12543;53.364;-1.504;2023-02-28T07:18:33;6.30;99.90
24410;DHT22;12543;53.364;-1.504;2023-02-28T07:21:05;6.30;99.90
24410;DHT22;12543;53.364;-1.504;2023-02-28T07:23:33;6.30;99.90
24410;DHT22;12543;53.364;-1.504;2023-02-28T07:26:00;6.30;99.90
24410;DHT22;12543;53.364;-1.504;2023-02-28T07:28:27;6.30;99.90
24410;DHT22;12543;53.364;-1.504;2023-02-28T07:30:54;6.30;99.90
24410;DHT22;12543;53.364;-1.504;2023-02-28T07:33:21;6.30;99.90
24410;DHT22;12543;53.364;-1.504;2023-02-28T07:35:48;6.30;99.90
24410;DHT22;12543;53.364;-1.504;2023-02-28T07:38:15;6.30;99.90
24410;DHT22;12543;53.364;-1.504;2023-02-28T07:40:43;6.30;99.90
24410;DHT22;12543;53.364;-1.504;2023-02-28T07:43:10;6.30;99.90
24410;DHT22;12543;53.364;-1.504;2023-02-28T07:45:37;6.30;99.90
24410;DHT22;12543;53.364;-1.504;2023-02-28T07:48:04;6.30;99.90
24410;DHT22;12543;53.364;-1.504;2023-02-28T07:50:31;6.30;99.90
24410;DHT22;12543;53.364;-1.504;2023-02-28T07:52:59;6.30;99.90
24410;DHT22;12543;53.364;-1.504;2023-02-28T07:55:26;6.30;99.90
24410;DHT22;12543;53.364;-1.504;2023-02-28T07:57:53;6.30;99.90
24410;DHT22;12543;53.364;-1.504;2023-02-28T08:00:21;6.30;99.90
24410;DHT22;12543;53.364;-1.504;2023-02-28T08:02:49;6.30;99.90
24410;DHT22;12543;53.364;-1.504;2023-02-28T08:05:16;6.30;99.90
24410;DHT22;12543;53.364;-1.504;2023-02-28T08:07:49;6.30;99.90
24410;DHT22;12543;53.364;-1.504;2023-02-28T08:10:16;6.30;99.90
24410;DHT22;12543;53.364;-1.504;2023-02-28T08:12:43;6.40;99.90
24410;DHT22;12543;53.364;-1.504;2023-02-28T08:15:10;6.40;99.90
24410;DHT22;12543;53.364;-1.504;2023-02-28T08:17:38;6.40;99.90
24410;DHT22;12543;53.364;-1.504;2023-02-28T08:20:05;6.40;99.90
24410;DHT22;12543;53.364;-1.504;2023-02-28T08:22:33;6.40;99.90
24410;DHT22;12543;53.364;-1.504;2023-02-28T08:25:00;6.40;99.90
24410;DHT22;12543;53.364;-1.504;2023-02-28T08:27:27;6.50;99.90
24410;DHT22;12543;53.364;-1.504;2023-02-28T08:29:54;6.50;99.90
24410;DHT22;12543;53.364;-1.504;2023-02-28T08:32:21;6.50;99.90
24410;DHT22;12543;53.364;-1.504;2023-02-28T08:34:56;6.50;99.90
24410;DHT22;12543;53.364;-1.504;2023-02-28T08:37:23;6.50;99.90
24410;DHT22;12543;53.364;-1.504;2023-02-28T08:39:50;6.50;99.90
24410;DHT22;12543;53.364;-1.504;2023-02-28T08:42:23;6.50;99.90
24410;DHT22;12543;53.364;-1.504;2023-02-28T08:44:50;6.50;99.90
24410;DHT22;12543;53.364;-1.504;2023-02-28T08:47:17;6.50;99.90
24410;DHT22;12543;53.364;-1.504;2023-02-28T08:49:44;6.50;99.90
24410;DHT22;12543;53.364;-1.504;2023-02-28T08:52:12;6.50;99.90
24410;DHT22;12543;53.364;-1.504;2023-02-28T08:54:39;6.50;99.90
24410;DHT22;12543;53.364;-1.504;2023-02-28T08:57:06;6.50;99.90
24410;DHT22;12543;53.364;-1.504;2023-02-28T08:59:33;6.60;99.90
24410;DHT22;12543;53.364;-1.504;2023-02-28T09:02:00;6.60;99.90
24410;DHT22;12543;53.364;-1.504;2023-02-28T09:04:27;6.60;99.90
24410;DHT22;12543;53.364;-1.504;2023-02-28T09:06:57;6.60;99.90
24410;DHT22;12543;53.364;-1.504;2023-02-28T09:09:24;6.60;99.90
24410;DHT22;12543;53.364;-1.504;2023-02-28T09:11:51;6.60;99.90
24410;DHT22;12543;53.364;-1.504;2023-02-28T09:14:18;6.60;99.90
24410;DHT22;12543;53.364;-1.504;2023-02-28T09:16:46;6.60;99.90
24410;DHT22;12543;53.364;-1.504;2023-02-28T09:19:13;6.60;99.90
24410;DHT22;12543;53.364;-1.504;2023-02-28T09:21:40;6.60;99.90
24410;DHT22;12543;53.364;-1.504;2023-02-28T09:24:07;6.70;99.90
24410;DHT22;12543;53.364;-1.504;2023-02-28T09:26:34;6.70;99.90
24410;DHT22;12543;53.364;-1.504;2023-02-28T09:29:13;6.70;99.90
24410;DHT22;12543;53.364;-1.504;2023-02-28T09:31:41;6.70;99.90
24410;DHT22;12543;53.364;-1.504;2023-02-28T09:34:10;6.70;99.90
24410;DHT22;12543;53.364;-1.504;2023-02-28T09:36:37;6.70;99.90
24410;DHT22;12543;53.364;-1.504;2023-02-28T09:39:12;6.70;99.90
24410;DHT22;12543;53.364;-1.504;2023-02-28T09:41:44;6.80;99.90
24410;DHT22;12543;53.364;-1.504;2023-02-28T09:44:43;6.80;99.90
24410;DHT22;12543;53.364;-1.504;2023-02-28T09:49:59;6.80;99.90
24410;DHT22;12543;53.364;-1.504;2023-02-28T09:52:31;6.90;99.90
24410;DHT22;12543;53.364;-1.504;2023-02-28T09:58:37;6.90;99.90
24410;DHT22;12543;53.364;-1.504;2023-02-28T10:07:10;7.00;99.90
24410;DHT22;12543;53.364;-1.504;2023-02-28T10:09:46;7.00;99.90
24410;DHT22;12543;53.364;-1.504;2023-02-28T10:12:16;7.00;99.90
24410;DHT22;12543;53.364;-1.504;2023-02-28T10:14:46;7.10;99.90
24410;DHT22;12543;53.364;-1.504;2023-02-28T10:17:18;7.10;99.90
24410;DHT22;12543;53.364;-1.504;2023-02-28T10:20:01;7.10;99.90
24410;DHT22;12543;53.364;-1.504;2023-02-28T10:25:27;7.20;99.90
24410;DHT22;12543;53.364;-1.504;2023-02-28T10:28:01;7.20;99.90
24410;DHT22;12543;53.364;-1.504;2023-02-28T10:30:32;7.20;99.90
24410;DHT22;12543;53.364;-1.504;2023-02-28T10:32:59;7.10;99.90
24410;DHT22;12543;53.364;-1.504;2023-02-28T10:35:27;7.10;99.90
24410;DHT22;12543;53.364;-1.504;2023-02-28T10:37:57;7.10;99.90
24410;DHT22;12543;53.364;-1.504;2023-02-28T10:40:27;7.20;99.90
24410;DHT22;12543;53.364;-1.504;2023-02-28T10:42:57;7.20;99.90
24410;DHT22;12543;53.364;-1.504;2023-02-28T10:45:25;7.30;99.90
24410;DHT22;12543;53.364;-1.504;2023-02-28T10:47:59;7.40;99.90
24410;DHT22;12543;53.364;-1.504;2023-02-28T10:55:37;7.60;99.90
24410;DHT22;12543;53.364;-1.504;2023-02-28T10:58:25;7.70;99.90
24410;DHT22;12543;53.364;-1.504;2023-02-28T11:00:53;7.70;99.90
24410;DHT22;12543;53.364;-1.504;2023-02-28T11:03:34;7.80;99.90
24410;DHT22;12543;53.364;-1.504;2023-02-28T11:06:07;7.80;99.90
24410;DHT22;12543;53.364;-1.504;2023-02-28T11:08:44;7.80;99.90
24410;DHT22;12543;53.364;-1.504;2023-02-28T11:11:12;7.80;99.90
24410;DHT22;12543;53.364;-1.504;2023-02-28T11:13:39;7.90;99.90
24410;DHT22;12543;53.364;-1.504;2023-02-28T11:16:11;7.90;99.90
24410;DHT22;12543;53.364;-1.504;2023-02-28T11:18:51;7.90;99.90
24410;DHT22;12543;53.364;-1.504;2023-02-28T11:21:27;7.90;99.90
24410;DHT22;12543;53.364;-1.504;2023-02-28T11:27:02;7.80;99.90
24410;DHT22;12543;53.364;-1.504;2023-02-28T11:29:31;7.80;99.90
24410;DHT22;12543;53.364;-1.504;2023-02-28T11:34:29;7.80;99.90
24410;DHT22;12543;53.364;-1.504;2023-02-28T11:36:58;7.80;99.90
24410;DHT22;12543;53.364;-1.504;2023-02-28T11:39:26;8.00;99.90
24410;DHT22;12543;53.364;-1.504;2023-02-28T11:45:02;8.20;99.90
24410;DHT22;12543;53.364;-1.504;2023-02-28T11:52:56;8.50;99.90
24410;DHT22;12543;53.364;-1.504;2023-02-28T11:55:27;8.50;99.90
24410;DHT22;12543;53.364;-1.504;2023-02-28T11:58:45;8.60;99.90
24410;DHT22;12543;53.364;-1.504;2023-02-28T12:07:27;8.60;99.90
24410;DHT22;12543;53.364;-1.504;2023-02-28T12:12:33;8.60;99.90
24410;DHT22;12543;53.364;-1.504;2023-02-28T12:15:06;8.50;99.90
24410;DHT22;12543;53.364;-1.504;2023-02-28T12:17:55;8.50;99.90
24410;DHT22;12543;53.364;-1.504;2023-02-28T12:23:40;8.60;99.90
24410;DHT22;12543;53.364;-1.504;2023-02-28T12:28:42;8.70;99.90
24410;DHT22;12543;53.364;-1.504;2023-02-28T12:31:20;8.70;99.90
24410;DHT22;12543;53.364;-1.504;2023-02-28T12:33:53;8.70;99.90
24410;DHT22;12543;53.364;-1.504;2023-02-28T12:36:22;8.70;99.90
24410;DHT22;12543;53.364;-1.504;2023-02-28T12:39:11;8.70;99.90
24410;DHT22;12543;53.364;-1.504;2023-02-28T12:41:44;8.70;99.90
24410;DHT22;12543;53.364;-1.504;2023-02-28T12:44:59;8.80;99.90
24410;DHT22;12543;53.364;-1.504;2023-02-28T12:47:15;8.80;99.90
24410;DHT22;12543;53.364;-1.504;2023-02-28T12:52:22;8.90;99.90
24410;DHT22;12543;53.364;-1.504;2023-02-28T12:54:58;9.00;99.90
24410;DHT22;12543;53.364;-1.504;2023-02-28T12:58:05;9.00;99.90
24410;DHT22;12543;53.364;-1.504;2023-02-28T13:00:37;9.10;99.90
24410;DHT22;12543;53.364;-1.504;2023-02-28T13:08:32;9.00;99.90
24410;DHT22;12543;53.364;-1.504;2023-02-28T13:11:01;8.90;99.90
24410;DHT22;12543;53.364;-1.504;2023-02-28T13:13:33;8.90;99.90
24410;DHT22;12543;53.364;-1.504;2023-02-28T13:16:02;8.90;99.90
24410;DHT22;12543;53.364;-1.504;2023-02-28T13:18:38;8.80;99.90
24410;DHT22;12543;53.364;-1.504;2023-02-28T13:21:23;8.80;99.90
24410;DHT22;12543;53.364;-1.504;2023-02-28T13:29:00;8.70;99.90
24410;DHT22;12543;53.364;-1.504;2023-02-28T13:31:28;8.70;99.90
24410;DHT22;12543;53.364;-1.504;2023-02-28T13:36:30;8.70;99.90
24410;DHT22;12543;53.364;-1.504;2023-02-28T13:39:00;8.70;99.90
24410;DHT22;12543;53.364;-1.504;2023-02-28T13:44:07;8.60;99.90
24410;DHT22;12543;53.364;-1.504;2023-02-28T13:54:49;8.60;99.90
24410;DHT22;12543;53.364;-1.504;2023-02-28T14:05:38;8.50;99.90
24410;DHT22;12543;53.364;-1.504;2023-02-28T14:08:14;8.50;99.90
24410;DHT22;12543;53.364;-1.504;2023-02-28T14:10:49;8.40;99.90
24410;DHT22;12543;53.364;-1.504;2023-02-28T14:16:17;8.30;99.90
24410;DHT22;12543;53.364;-1.504;2023-02-28T14:19:02;8.20;99.90
24410;DHT22;12543;53.364;-1.504;2023-02-28T14:21:37;8.20;99.90
24410;DHT22;12543;53.364;-1.504;2023-02-28T14:37:54;8.00;99.90
24410;DHT22;12543;53.364;-1.504;2023-02-28T14:40:31;8.00;99.90
24410;DHT22;12543;53.364;-1.504;2023-02-28T14:43:04;8.00;99.90
24410;DHT22;12543;53.364;-1.504;2023-02-28T14:45:33;8.00;99.90
24410;DHT22;12543;53.364;-1.504;2023-02-28T14:48:02;8.00;99.90
24410;DHT22;12543;53.364;-1.504;2023-02-28T14:50:36;8.00;99.90
24410;DHT22;12543;53.364;-1.504;2023-02-28T14:53:04;8.00;99.90
24410;DHT22;12543;53.364;-1.504;2023-02-28T14:55:35;8.00;99.90
24410;DHT22;12543;53.364;-1.504;2023-02-28T14:58:05;8.00;99.90
24410;DHT22;12543;53.364;-1.504;2023-02-28T15:00:46;8.00;99.90
24410;DHT22;12543;53.364;-1.504;2023-02-28T15:05:59;7.90;99.90
24410;DHT22;12543;53.364;-1.504;2023-02-28T15:08:27;7.90;99.90
24410;DHT22;12543;53.364;-1.504;2023-02-28T15:16:16;7.80;99.90
24410;DHT22;12543;53.364;-1.504;2023-02-28T15:18:49;7.80;99.90
24410;DHT22;12543;53.364;-1.504;2023-02-28T15:21:27;7.80;99.90
24410;DHT22;12543;53.364;-1.504;2023-02-28T15:24:58;7.80;99.90
24410;DHT22;12543;53.364;-1.504;2023-02-28T15:26:56;7.80;99.90
24410;DHT22;12543;53.364;-1.504;2023-02-28T15:29:27;7.80;99.90
24410;DHT22;12543;53.364;-1.504;2023-02-28T15:32:06;7.80;99.90
24410;DHT22;12543;53.364;-1.504;2023-02-28T15:34:37;7.80;99.90
24410;DHT22;12543;53.364;-1.504;2023-02-28T15:37:37;7.80;99.90
24410;DHT22;12543;53.364;-1.504;2023-02-28T15:42:39;7.80;99.90
24410;DHT22;12543;53.364;-1.504;2023-02-28T15:45:48;7.80;99.90
24410;DHT22;12543;53.364;-1.504;2023-02-28T15:48:23;7.80;99.90
24410;DHT22;12543;53.364;-1.504;2023-02-28T15:50:56;7.80;99.90
24410;DHT22;12543;53.364;-1.504;2023-02-28T15:53:29;7.80;99.90
24410;DHT22;12543;53.364;-1.504;2023-02-28T15:56:04;7.70;99.90
24410;DHT22;12543;53.364;-1.504;2023-02-28T15:58:32;7.70;99.90
24410;DHT22;12543;53.364;-1.504;2023-02-28T16:01:05;7.70;99.90
24410;DHT22;12543;53.364;-1.504;2023-02-28T16:03:55;7.70;99.90
24410;DHT22;12543;53.364;-1.504;2023-02-28T16:06:40;7.60;99.90
24410;DHT22;12543;53.364;-1.504;2023-02-28T16:09:14;7.60;99.90
24410;DHT22;12543;53.364;-1.504;2023-02-28T16:11:48;7.60;99.90
24410;DHT22;12543;53.364;-1.504;2023-02-28T16:14:27;7.60;99.90
24410;DHT22;12543;53.364;-1.504;2023-02-28T16:17:03;7.60;99.90
24410;DHT22;12543;53.364;-1.504;2023-02-28T16:19:31;7.60;99.90
24410;DHT22;12543;53.364;-1.504;2023-02-28T16:22:00;7.60;99.90
24410;DHT22;12543;53.364;-1.504;2023-02-28T16:24:28;7.60;99.90
24410;DHT22;12543;53.364;-1.504;2023-02-28T16:26:55;7.50;99.90
24410;DHT22;12543;53.364;-1.504;2023-02-28T16:29:31;7.50;99.90
24410;DHT22;12543;53.364;-1.504;2023-02-28T16:31:59;7.50;99.90
24410;DHT22;12543;53.364;-1.504;2023-02-28T16:34:27;7.50;99.90
24410;DHT22;12543;53.364;-1.504;2023-02-28T16:36:54;7.50;99.90
24410;DHT22;12543;53.364;-1.504;2023-02-28T16:39:21;7.40;99.90
24410;DHT22;12543;53.364;-1.504;2023-02-28T16:41:50;7.40;99.90
24410;DHT22;12543;53.364;-1.504;2023-02-28T16:44:33;7.40;99.90
24410;DHT22;12543;53.364;-1.504;2023-02-28T16:47:02;7.40;99.90
24410;DHT22;12543;53.364;-1.504;2023-02-28T16:49:30;7.40;99.90
24410;DHT22;12543;53.364;-1.504;2023-02-28T16:51:57;7.40;99.90
24410;DHT22;12543;53.364;-1.504;2023-02-28T16:54:24;7.40;99.90
24410;DHT22;12543;53.364;-1.504;2023-02-28T16:56:51;7.40;99.90
24410;DHT22;12543;53.364;-1.504;2023-02-28T16:59:22;7.30;99.90
24410;DHT22;12543;53.364;-1.504;2023-02-28T17:01:51;7.30;99.90
24410;DHT22;12543;53.364;-1.504;2023-02-28T17:04:18;7.30;99.90
24410;DHT22;12543;53.364;-1.504;2023-02-28T17:06:46;7.30;99.90
24410;DHT22;12543;53.364;-1.504;2023-02-28T17:09:21;7.30;99.90
24410;DHT22;12543;53.364;-1.504;2023-02-28T17:11:56;7.30;99.90
24410;DHT22;12543;53.364;-1.504;2023-02-28T17:14:23;7.30;99.90
24410;DHT22;12543;53.364;-1.504;2023-02-28T17:16:50;7.30;99.90
24410;DHT22;12543;53.364;-1.504;2023-02-28T17:19:17;7.30;99.90
24410;DHT22;12543;53.364;-1.504;2023-02-28T17:21:45;7.30;99.90
24410;DHT22;12543;53.364;-1.504;2023-02-28T17:24:12;7.20;99.90
24410;DHT22;12543;53.364;-1.504;2023-02-28T17:26:45;7.20;99.90
24410;DHT22;12543;53.364;-1.504;2023-02-28T17:29:21;7.20;99.90
24410;DHT22;12543;53.364;-1.504;2023-02-28T17:31:48;7.20;99.90
24410;DHT22;12543;53.364;-1.504;2023-02-28T17:34:15;7.20;99.90
24410;DHT22;12543;53.364;-1.504;2023-02-28T17:36:46;7.10;99.90
24410;DHT22;12543;53.364;-1.504;2023-02-28T17:39:16;7.20;99.90
24410;DHT22;12543;53.364;-1.504;2023-02-28T17:41:54;7.10;99.90
24410;DHT22;12543;53.364;-1.504;2023-02-28T17:44:22;7.10;99.90
24410;DHT22;12543;53.364;-1.504;2023-02-28T17:46:54;7.10;99.90
24410;DHT22;12543;53.364;-1.504;2023-02-28T17:49:22;7.10;99.90
24410;DHT22;12543;53.364;-1.504;2023-02-28T17:51:49;7.10;99.90
24410;DHT22;12543;53.364;-1.504;2023-02-28T17:54:17;7.10;99.90
24410;DHT22;12543;53.364;-1.504;2023-02-28T17:56:45;7.10;99.90
24410;DHT22;12543;53.364;-1.504;2023-02-28T17:59:12;7.10;99.90
24410;DHT22;12543;53.364;-1.504;2023-02-28T18:01:39;7.10;99.90
24410;DHT22;12543;53.364;-1.504;2023-02-28T18:04:06;7.10;99.90
24410;DHT22;12543;53.364;-1.504;2023-02-28T18:06:38;7.00;99.90
24410;DHT22;12543;53.364;-1.504;2023-02-28T18:09:15;7.00;99.90
24410;DHT22;12543;53.364;-1.504;2023-02-28T18:11:42;7.00;99.90
24410;DHT22;12543;53.364;-1.504;2023-02-28T18:14:11;7.00;99.90
24410;DHT22;12543;53.364;-1.504;2023-02-28T18:16:39;7.00;99.90
24410;DHT22;12543;53.364;-1.504;2023-02-28T18:19:06;7.00;99.90
24410;DHT22;12543;53.364;-1.504;2023-02-28T18:21:35;7.00;99.90
24410;DHT22;12543;53.364;-1.504;2023-02-28T18:24:02;7.00;99.90